Terminal Aerodrome Forecast
Issued by NWS

Current Version | Previous Version | Text Only | Print | Product List | Glossary On
Versions: 1 2 3 4 5 6 7 8 9 10 11 12 13 14
000
FTUS45 KSLC 201120
TAFSGU
TAF
KSGU 201120Z 2012/2112 12006KT P6SM SKC
     FM202000 23013G22KT P6SM SKC
     FM210200 20011KT P6SM SKC
     FM210500 16011KT P6SM SKC=

USA.gov is the U.S. government's official web portal to all federal, state and local government web resources and services.